createdAt,value
2022-08-17T00:00:42.814Z,20.83
2022-08-17T00:01:51.879Z,20.80
2022-08-17T00:02:41.170Z,20.86
2022-08-17T00:03:33.769Z,20.79
2022-08-17T00:04:33.745Z,20.77
2022-08-17T00:05:33.729Z,20.65
2022-08-17T00:06:33.705Z,20.80
2022-08-17T00:07:33.685Z,20.72
2022-08-17T00:08:33.662Z,20.80
2022-08-17T00:09:33.642Z,20.80
2022-08-17T00:10:33.621Z,20.86
2022-08-17T00:11:33.604Z,20.83
2022-08-17T00:12:41.415Z,20.80
2022-08-17T00:13:33.558Z,20.74
2022-08-17T00:14:33.537Z,20.68
2022-08-17T00:15:33.517Z,20.65
2022-08-17T00:16:56.526Z,20.76
2022-08-17T00:17:33.473Z,20.71
2022-08-17T00:18:58.228Z,20.74
2022-08-17T00:19:33.431Z,20.56
2022-08-17T00:20:35.034Z,20.69
2022-08-17T00:21:36.071Z,20.62
2022-08-17T00:22:36.463Z,20.51
2022-08-17T00:23:33.345Z,20.62
2022-08-17T00:24:33.331Z,20.59
2022-08-17T00:25:33.303Z,20.56
2022-08-17T00:26:44.544Z,20.56
2022-08-17T00:27:33.259Z,20.50
2022-08-17T00:28:33.428Z,20.46
2022-08-17T00:29:33.216Z,20.39
2022-08-17T00:30:51.006Z,20.34
2022-08-17T00:31:33.174Z,20.34
2022-08-17T00:33:12.433Z,20.30
2022-08-17T00:33:33.129Z,20.35
2022-08-17T00:34:33.107Z,20.33
2022-08-17T00:35:33.089Z,20.31
2022-08-17T00:36:33.064Z,20.39
2022-08-17T00:37:33.056Z,20.33
2022-08-17T00:38:33.023Z,20.39
2022-08-17T00:39:33.087Z,20.33
2022-08-17T00:40:40.784Z,20.33
2022-08-17T00:41:32.960Z,20.35
2022-08-17T00:42:32.940Z,20.53
2022-08-17T00:43:32.921Z,20.51
2022-08-17T00:44:32.895Z,20.56
2022-08-17T00:45:32.872Z,20.56
2022-08-17T00:46:32.849Z,20.61
2022-08-17T00:47:32.830Z,20.62
2022-08-17T00:48:32.807Z,20.58
2022-08-17T00:49:32.785Z,20.62
2022-08-17T00:50:32.763Z,20.54
2022-08-17T00:51:32.742Z,20.62
2022-08-17T00:52:32.719Z,20.56
2022-08-17T00:53:32.701Z,20.65
2022-08-17T00:54:32.679Z,20.56
2022-08-17T00:55:32.659Z,20.62
2022-08-17T00:56:32.635Z,20.62
2022-08-17T00:57:32.616Z,20.50
2022-08-17T00:58:35.964Z,20.54
2022-08-17T00:59:32.579Z,20.66
2022-08-17T01:00:32.550Z,20.66
2022-08-17T01:01:32.584Z,20.64
2022-08-17T01:02:40.368Z,20.62
2022-08-17T01:03:32.488Z,20.74
2022-08-17T01:04:32.463Z,20.72
2022-08-17T01:05:32.445Z,20.69
2022-08-17T01:06:32.421Z,20.65
2022-08-17T01:07:32.400Z,20.69
2022-08-17T01:08:32.377Z,20.66
2022-08-17T01:09:32.356Z,20.68
2022-08-17T01:10:58.345Z,20.66
2022-08-17T01:11:32.315Z,20.68
2022-08-17T01:12:32.290Z,20.69
2022-08-17T01:13:36.777Z,20.79
2022-08-17T01:14:32.249Z,20.81
2022-08-17T01:15:32.227Z,20.83
2022-08-17T01:16:32.204Z,20.77
2022-08-17T01:17:32.187Z,20.87
2022-08-17T01:18:32.162Z,20.89
2022-08-17T01:19:32.142Z,20.89
2022-08-17T01:20:32.119Z,20.96
2022-08-17T01:21:32.099Z,20.99
2022-08-17T01:22:32.076Z,21.02
2022-08-17T01:23:32.056Z,21.04
2022-08-17T01:24:33.758Z,21.06
2022-08-17T01:25:32.015Z,21.17
2022-08-17T01:26:31.993Z,21.17
2022-08-17T01:27:31.976Z,21.29
2022-08-17T01:28:52.299Z,21.30
2022-08-17T01:29:31.930Z,21.26
2022-08-17T01:30:57.975Z,21.24
2022-08-17T01:31:31.887Z,21.30
2022-08-17T01:32:31.865Z,21.20
2022-08-17T01:33:31.846Z,21.17
2022-08-17T01:34:42.840Z,21.16
2022-08-17T01:35:31.803Z,21.05
2022-08-17T01:36:31.780Z,20.91
2022-08-17T01:37:31.760Z,20.87
2022-08-17T01:38:31.797Z,20.89
2022-08-17T01:39:31.803Z,20.81
2022-08-17T01:40:31.694Z,20.81
2022-08-17T01:41:31.672Z,20.84
2022-08-17T01:42:31.650Z,20.86
2022-08-17T01:43:31.632Z,20.81
2022-08-17T01:44:31.606Z,20.86
2022-08-17T01:45:31.586Z,20.80
2022-08-17T01:46:31.568Z,20.81
2022-08-17T01:47:31.546Z,20.84
2022-08-17T01:48:31.520Z,20.84
2022-08-17T01:49:31.501Z,20.80
2022-08-17T01:50:31.481Z,20.84
2022-08-17T01:51:31.463Z,20.86
2022-08-17T01:52:31.437Z,20.77
2022-08-17T01:53:31.415Z,20.80
2022-08-17T01:54:31.399Z,20.65
2022-08-17T01:55:31.373Z,20.66
2022-08-17T01:56:31.367Z,20.69
2022-08-17T01:57:31.327Z,20.71
2022-08-17T01:58:31.308Z,20.69
2022-08-17T01:59:31.285Z,20.69
2022-08-17T02:00:46.612Z,20.65
2022-08-17T02:01:31.280Z,20.61
2022-08-17T02:02:31.676Z,20.62
2022-08-17T02:03:31.204Z,20.64
2022-08-17T02:04:31.179Z,20.65
2022-08-17T02:05:31.157Z,20.69
2022-08-17T02:06:31.480Z,20.81
2022-08-17T02:07:31.116Z,20.86
2022-08-17T02:08:37.257Z,20.91
2022-08-17T02:09:31.072Z,20.86
2022-08-17T02:10:34.001Z,20.95
2022-08-17T02:11:31.030Z,20.91
2022-08-17T02:12:39.511Z,20.99
2022-08-17T02:13:30.989Z,20.93
2022-08-17T02:14:30.968Z,20.98
2022-08-17T02:15:30.946Z,21.02
2022-08-17T02:16:37.502Z,20.95
2022-08-17T02:17:30.903Z,20.99
2022-08-17T02:18:30.882Z,20.99
2022-08-17T02:19:30.862Z,20.96
2022-08-17T02:20:41.684Z,20.95
2022-08-17T02:21:30.817Z,20.99
2022-08-17T02:22:30.797Z,20.90
2022-08-17T02:23:30.776Z,20.90
2022-08-17T02:24:58.170Z,20.91
2022-08-17T02:25:30.735Z,21.01
2022-08-17T02:26:30.712Z,20.93
2022-08-17T02:27:30.690Z,20.98
2022-08-17T02:28:30.684Z,21.09
2022-08-17T02:29:30.645Z,21.04
2022-08-17T02:31:01.561Z,21.11
2022-08-17T02:31:30.616Z,21.13
2022-08-17T02:32:30.583Z,21.11
2022-08-17T02:33:41.728Z,21.19
2022-08-17T02:34:30.540Z,21.21
2022-08-17T02:35:30.519Z,21.24
2022-08-17T02:36:30.498Z,21.36
2022-08-17T02:37:30.477Z,21.35
2022-08-17T02:38:30.455Z,21.42
2022-08-17T02:39:30.521Z,21.56
2022-08-17T02:40:36.232Z,21.61
2022-08-17T02:41:30.393Z,21.60
2022-08-17T02:42:30.370Z,21.76
2022-08-17T02:43:30.351Z,21.76
2022-08-17T02:44:35.500Z,21.76
2022-08-17T02:45:30.308Z,21.76
2022-08-17T02:46:30.289Z,21.79
2022-08-17T02:47:30.265Z,21.81
2022-08-17T02:48:31.629Z,21.76
2022-08-17T02:49:30.223Z,21.83
2022-08-17T02:50:30.204Z,21.82
2022-08-17T02:51:30.180Z,21.82
2022-08-17T02:52:43.191Z,21.82
2022-08-17T02:53:36.005Z,21.83
2022-08-17T02:54:41.738Z,21.91
2022-08-17T02:55:30.093Z,21.83
2022-08-17T02:56:30.072Z,21.83
2022-08-17T02:57:30.050Z,21.91
2022-08-17T02:58:35.430Z,21.90
2022-08-17T02:59:30.010Z,21.82
2022-08-17T03:00:30.005Z,21.81
2022-08-17T03:01:30.013Z,21.78
2022-08-17T03:02:29.946Z,21.78
2022-08-17T03:03:29.925Z,21.83
2022-08-17T03:04:29.904Z,21.79
2022-08-17T03:05:29.882Z,21.71
2022-08-17T03:06:29.863Z,21.71
2022-08-17T03:07:29.841Z,21.72
2022-08-17T03:08:29.818Z,21.71
2022-08-17T03:09:29.796Z,21.63
2022-08-17T03:10:29.776Z,21.67
2022-08-17T03:11:29.757Z,21.67
2022-08-17T03:12:29.733Z,21.64
2022-08-17T03:13:29.712Z,21.67
2022-08-17T03:14:29.692Z,21.64
2022-08-17T03:15:29.670Z,21.64
2022-08-17T03:16:29.648Z,21.60
2022-08-17T03:17:29.626Z,21.60
2022-08-17T03:18:29.604Z,21.53
2022-08-17T03:19:29.582Z,21.44
2022-08-17T03:20:29.561Z,21.46
2022-08-17T03:21:29.540Z,21.42
2022-08-17T03:22:37.320Z,21.38
2022-08-17T03:23:30.417Z,21.30
2022-08-17T03:24:29.482Z,21.32
2022-08-17T03:25:29.455Z,21.29
2022-08-17T03:26:29.655Z,21.19
2022-08-17T03:27:29.412Z,21.21
2022-08-17T03:28:29.394Z,21.23
2022-08-17T03:29:29.370Z,21.17
2022-08-17T03:30:29.351Z,21.21
2022-08-17T03:31:29.334Z,21.21
2022-08-17T03:32:29.306Z,21.20
2022-08-17T03:33:29.286Z,21.27
2022-08-17T03:34:29.267Z,21.20
2022-08-17T03:35:29.248Z,21.26
2022-08-17T03:36:29.223Z,21.29
2022-08-17T03:37:29.201Z,21.23
2022-08-17T03:38:29.181Z,21.23
2022-08-17T03:39:29.217Z,21.13
2022-08-17T03:40:55.171Z,21.13
2022-08-17T03:41:29.117Z,21.06
2022-08-17T03:42:32.513Z,21.09
2022-08-17T03:43:29.077Z,20.99
2022-08-17T03:44:29.056Z,20.99
2022-08-17T03:45:29.031Z,20.93
2022-08-17T03:46:35.096Z,20.90
2022-08-17T03:47:28.989Z,20.87
2022-08-17T03:48:28.968Z,20.91
2022-08-17T03:49:28.944Z,20.90
2022-08-17T03:50:28.924Z,20.83
2022-08-17T03:51:28.902Z,20.81
2022-08-17T03:52:28.881Z,20.77
2022-08-17T03:53:28.859Z,20.72
2022-08-17T03:54:28.839Z,20.71
2022-08-17T03:55:35.904Z,20.64
2022-08-17T03:56:28.796Z,20.64
2022-08-17T03:57:28.774Z,20.62
2022-08-17T03:58:28.755Z,20.56
2022-08-17T03:59:28.732Z,20.56
2022-08-17T04:00:28.711Z,20.54
2022-08-17T04:01:28.736Z,20.47
2022-08-17T04:02:28.669Z,20.51
2022-08-17T04:03:28.646Z,20.53
2022-08-17T04:04:28.625Z,20.46
2022-08-17T04:05:28.607Z,20.46
2022-08-17T04:06:28.586Z,20.50
2022-08-17T04:07:28.563Z,20.41
2022-08-17T04:08:28.543Z,20.41
2022-08-17T04:09:28.519Z,20.47
2022-08-17T04:10:28.500Z,20.41
2022-08-17T04:11:28.478Z,20.42
2022-08-17T04:12:28.457Z,20.47
2022-08-17T04:13:28.438Z,20.51
2022-08-17T04:14:28.414Z,20.53
2022-08-17T04:15:28.393Z,20.47
2022-08-17T04:16:28.371Z,20.46
2022-08-17T04:17:28.356Z,20.53
2022-08-17T04:18:28.329Z,20.50
2022-08-17T04:19:28.307Z,20.51
2022-08-17T04:20:28.286Z,20.41
2022-08-17T04:21:28.262Z,20.46
2022-08-17T04:22:32.376Z,20.50
2022-08-17T04:23:28.225Z,20.51
2022-08-17T04:24:28.198Z,20.47
2022-08-17T04:25:28.176Z,20.47
2022-08-17T04:26:54.217Z,20.54
2022-08-17T04:27:28.137Z,20.51
2022-08-17T04:28:28.113Z,20.46
2022-08-17T04:29:28.091Z,20.43
2022-08-17T04:30:28.070Z,20.53
2022-08-17T04:31:28.051Z,20.56
2022-08-17T04:33:10.466Z,20.54
2022-08-17T04:33:28.005Z,20.50
2022-08-17T04:34:27.988Z,20.56
2022-08-17T04:35:27.964Z,20.59
2022-08-17T04:36:27.943Z,20.68
2022-08-17T04:37:27.922Z,20.66
2022-08-17T04:38:27.903Z,20.71
2022-08-17T04:39:27.904Z,20.79
2022-08-17T04:40:27.859Z,20.81
2022-08-17T04:41:27.836Z,20.80
2022-08-17T04:42:27.817Z,20.83
2022-08-17T04:43:27.804Z,20.81
2022-08-17T04:44:37.619Z,20.81
2022-08-17T04:45:27.752Z,20.91
2022-08-17T04:46:27.732Z,20.89
2022-08-17T04:47:27.711Z,20.90
2022-08-17T04:48:28.087Z,20.84
2022-08-17T04:49:27.666Z,20.90
2022-08-17T04:50:27.651Z,20.95
2022-08-17T04:51:27.625Z,20.91
2022-08-17T04:52:32.289Z,20.99
2022-08-17T04:53:27.581Z,20.93
2022-08-17T04:54:27.559Z,20.93
2022-08-17T04:55:27.544Z,21.02
2022-08-17T04:56:27.518Z,20.96
2022-08-17T04:57:27.495Z,21.02
2022-08-17T04:58:27.478Z,20.90
2022-08-17T04:59:27.453Z,20.93
2022-08-17T05:00:27.432Z,20.93
2022-08-17T05:01:27.473Z,20.90
2022-08-17T05:02:27.392Z,20.96
2022-08-17T05:03:27.371Z,20.98
2022-08-17T05:04:34.247Z,20.98
2022-08-17T05:05:27.327Z,21.02
2022-08-17T05:06:27.308Z,20.99
2022-08-17T05:07:31.447Z,21.02
2022-08-17T05:08:27.266Z,21.02
2022-08-17T05:09:27.244Z,21.04
2022-08-17T05:10:27.221Z,21.06
2022-08-17T05:11:27.201Z,21.06
2022-08-17T05:12:27.180Z,21.16
2022-08-17T05:13:27.160Z,21.24
2022-08-17T05:14:33.521Z,21.19
2022-08-17T05:15:27.118Z,21.26
2022-08-17T05:16:27.094Z,21.35
2022-08-17T05:17:27.074Z,21.34
2022-08-17T05:18:27.053Z,21.42
2022-08-17T05:19:27.033Z,21.39
2022-08-17T05:20:27.010Z,21.45
2022-08-17T05:21:26.990Z,21.48
2022-08-17T05:22:26.970Z,21.54
2022-08-17T05:23:26.949Z,21.59
2022-08-17T05:24:38.987Z,21.60
2022-08-17T05:25:26.907Z,21.67
2022-08-17T05:26:27.394Z,21.64
2022-08-17T05:27:29.801Z,21.60
2022-08-17T05:28:27.574Z,21.64
2022-08-17T05:29:35.283Z,21.76
2022-08-17T05:30:26.803Z,21.75
2022-08-17T05:31:26.784Z,21.75
2022-08-17T05:32:39.144Z,21.82
2022-08-17T05:33:26.740Z,21.79
2022-08-17T05:34:26.720Z,21.91
2022-08-17T05:35:26.698Z,21.90
2022-08-17T05:36:42.446Z,21.92
2022-08-17T05:37:26.656Z,22.02
2022-08-17T05:38:26.636Z,22.02
2022-08-17T05:39:26.658Z,22.06
2022-08-17T05:40:26.595Z,22.06
2022-08-17T05:41:26.571Z,22.02
2022-08-17T05:42:26.552Z,22.07
2022-08-17T05:43:26.530Z,22.06
2022-08-17T05:44:26.509Z,22.04
2022-08-17T05:45:54.489Z,22.10
2022-08-17T05:46:26.469Z,22.06
2022-08-17T05:47:26.449Z,21.99
2022-08-17T05:48:35.664Z,22.06
2022-08-17T05:49:26.406Z,22.07
2022-08-17T05:50:27.190Z,22.17
2022-08-17T05:51:26.364Z,22.13
2022-08-17T05:52:26.352Z,22.13
2022-08-17T05:53:26.322Z,22.22
2022-08-17T05:54:26.305Z,22.28
2022-08-17T05:55:26.283Z,22.22
2022-08-17T05:56:29.753Z,22.23
2022-08-17T05:57:26.244Z,22.38
2022-08-17T05:58:26.226Z,22.44
2022-08-17T05:59:26.203Z,22.47
2022-08-17T06:00:30.193Z,22.43
2022-08-17T06:01:26.192Z,22.56
2022-08-17T06:02:26.141Z,22.47
2022-08-17T06:03:26.122Z,22.53
2022-08-17T06:04:26.100Z,22.52
2022-08-17T06:05:26.078Z,22.59
2022-08-17T06:06:31.360Z,22.71
2022-08-17T06:07:26.038Z,22.65
2022-08-17T06:08:26.016Z,22.80
2022-08-17T06:09:31.503Z,22.84
2022-08-17T06:10:25.976Z,22.87
2022-08-17T06:11:25.956Z,22.86
2022-08-17T06:12:25.934Z,22.90
2022-08-17T06:13:25.920Z,23.01
2022-08-17T06:14:25.896Z,23.07
2022-08-17T06:15:25.878Z,23.17
2022-08-17T06:16:34.329Z,23.14
2022-08-17T06:17:25.836Z,23.27
2022-08-17T06:18:25.816Z,23.09
2022-08-17T06:19:25.797Z,23.15
2022-08-17T06:20:25.776Z,23.22
2022-08-17T06:21:27.455Z,23.15
2022-08-17T06:22:25.737Z,23.19
2022-08-17T06:23:25.716Z,23.14
2022-08-17T06:24:25.698Z,23.20
2022-08-17T06:25:25.678Z,23.17
2022-08-17T06:26:25.891Z,23.19
2022-08-17T06:27:25.639Z,23.17
2022-08-17T06:28:25.614Z,23.12
2022-08-17T06:29:25.595Z,23.23
2022-08-17T06:30:25.573Z,23.23
2022-08-17T06:31:25.553Z,23.19
2022-08-17T06:32:25.533Z,23.15
2022-08-17T06:33:25.513Z,23.09
2022-08-17T06:34:25.491Z,23.12
2022-08-17T06:35:30.027Z,23.17
2022-08-17T06:36:25.451Z,23.11
2022-08-17T06:37:25.432Z,23.17
2022-08-17T06:38:38.074Z,23.22
2022-08-17T06:39:25.443Z,23.19
2022-08-17T06:40:25.371Z,23.27
2022-08-17T06:41:25.352Z,23.29
2022-08-17T06:42:54.738Z,23.31
2022-08-17T06:43:25.320Z,23.31
2022-08-17T06:44:42.189Z,23.42
2022-08-17T06:45:25.274Z,23.42
2022-08-17T06:46:25.254Z,23.47
2022-08-17T06:47:28.595Z,23.52
2022-08-17T06:48:25.213Z,23.52
2022-08-17T06:49:25.199Z,23.70
2022-08-17T06:50:25.175Z,23.71
2022-08-17T06:51:25.158Z,23.62
2022-08-17T06:52:46.923Z,23.71
2022-08-17T06:53:25.122Z,23.75
2022-08-17T06:54:25.095Z,23.72
2022-08-17T06:55:25.076Z,23.76
2022-08-17T06:56:25.055Z,23.94
2022-08-17T06:57:25.036Z,23.90
2022-08-17T06:58:28.939Z,23.98
2022-08-17T06:59:24.997Z,23.92
2022-08-17T07:00:24.976Z,23.92
2022-08-17T07:01:25.041Z,23.89
2022-08-17T07:02:29.363Z,23.86
2022-08-17T07:03:24.917Z,23.97
2022-08-17T07:04:24.896Z,23.97
2022-08-17T07:05:24.883Z,23.87
2022-08-17T07:06:24.857Z,24.02
2022-08-17T07:07:24.838Z,23.97
2022-08-17T07:08:29.672Z,24.10
2022-08-17T07:09:24.801Z,24.13
2022-08-17T07:10:24.862Z,24.17
2022-08-17T07:11:24.762Z,24.22
2022-08-17T07:12:24.783Z,24.23
2022-08-17T07:13:24.722Z,24.14
2022-08-17T07:14:24.706Z,24.27
2022-08-17T07:15:24.684Z,24.32
2022-08-17T07:16:24.662Z,24.37
2022-08-17T07:17:46.976Z,24.35
2022-08-17T07:18:24.621Z,24.42
2022-08-17T07:19:24.606Z,24.49
2022-08-17T07:20:24.648Z,24.56
2022-08-17T07:21:26.704Z,24.60
2022-08-17T07:22:24.650Z,24.71
2022-08-17T07:23:24.526Z,24.68
2022-08-17T07:24:29.632Z,24.50
2022-08-17T07:25:24.487Z,24.49
2022-08-17T07:26:24.469Z,24.44
2022-08-17T07:27:24.450Z,24.42
2022-08-17T07:28:24.429Z,24.47
2022-08-17T07:29:24.411Z,24.45
2022-08-17T07:30:24.446Z,24.44
2022-08-17T07:31:24.372Z,24.53
2022-08-17T07:32:24.511Z,24.37
2022-08-17T07:33:24.334Z,24.39
2022-08-17T07:34:24.315Z,24.42
2022-08-17T07:35:24.296Z,24.44
2022-08-17T07:36:29.143Z,24.53
2022-08-17T07:37:24.257Z,24.45
2022-08-17T07:38:26.983Z,24.59
2022-08-17T07:39:24.360Z,24.52
2022-08-17T07:40:24.413Z,24.50
2022-08-17T07:41:24.180Z,24.67
2022-08-17T07:42:24.161Z,24.63
2022-08-17T07:43:24.142Z,24.69
2022-08-17T07:44:24.124Z,24.64
2022-08-17T07:45:24.103Z,24.63
2022-08-17T07:46:24.083Z,24.68
2022-08-17T07:47:24.067Z,24.76
2022-08-17T07:48:24.044Z,24.82
2022-08-17T07:49:24.023Z,24.88
2022-08-17T07:50:25.946Z,24.94
2022-08-17T07:51:23.985Z,24.91
2022-08-17T07:52:51.801Z,25.05
2022-08-17T07:53:23.947Z,24.97
2022-08-17T07:54:23.927Z,25.01
2022-08-17T07:55:23.909Z,25.06
2022-08-17T07:56:23.889Z,25.07
2022-08-17T07:57:27.932Z,25.06
2022-08-17T07:58:23.850Z,25.06
2022-08-17T07:59:24.121Z,25.07
2022-08-17T08:00:31.399Z,25.09
2022-08-17T08:01:23.851Z,24.98
2022-08-17T08:02:28.976Z,25.09
2022-08-17T08:03:26.123Z,25.06
2022-08-17T08:04:37.584Z,25.15
2022-08-17T08:05:48.647Z,25.17
2022-08-17T08:06:23.703Z,25.06
2022-08-17T08:07:23.683Z,25.05
2022-08-17T08:08:23.661Z,25.05
2022-08-17T08:09:23.645Z,25.09
2022-08-17T08:10:23.626Z,25.01
2022-08-17T08:11:23.609Z,25.02
2022-08-17T08:12:23.585Z,24.91
2022-08-17T08:13:23.568Z,25.06
2022-08-17T08:14:28.589Z,24.98
2022-08-17T08:15:23.531Z,25.06
2022-08-17T08:16:23.513Z,25.12
2022-08-17T08:17:23.494Z,25.07
2022-08-17T08:18:53.773Z,25.12
2022-08-17T08:19:23.457Z,25.20
2022-08-17T08:20:42.393Z,25.16
2022-08-17T08:21:23.415Z,25.27
2022-08-17T08:22:23.395Z,25.28
2022-08-17T08:23:23.378Z,25.10
2022-08-17T08:24:23.359Z,25.17
2022-08-17T08:25:23.342Z,25.37
2022-08-17T08:26:23.320Z,25.34
2022-08-17T08:27:23.304Z,25.27
2022-08-17T08:28:23.282Z,25.15
2022-08-17T08:29:23.264Z,25.25
2022-08-17T08:30:23.244Z,25.27
2022-08-17T08:31:23.227Z,25.20
2022-08-17T08:32:23.206Z,25.19
2022-08-17T08:33:23.208Z,25.16
2022-08-17T08:34:58.923Z,25.13
2022-08-17T08:35:23.154Z,25.10
2022-08-17T08:37:12.610Z,25.30
2022-08-17T08:37:33.749Z,25.24
2022-08-17T08:38:23.096Z,25.20
2022-08-17T08:39:23.077Z,25.31
2022-08-17T08:40:23.060Z,25.28
2022-08-17T08:41:23.040Z,25.24
2022-08-17T08:42:23.020Z,25.19
2022-08-17T08:43:23.003Z,25.32
2022-08-17T08:44:22.983Z,25.34
2022-08-17T08:45:22.966Z,25.35
2022-08-17T08:46:23.006Z,25.34
2022-08-17T08:47:22.927Z,25.32
2022-08-17T08:48:53.464Z,25.32
2022-08-17T08:49:39.086Z,25.32
2022-08-17T08:50:30.191Z,25.32
2022-08-17T08:51:22.853Z,25.35
2022-08-17T08:52:22.829Z,25.46
2022-08-17T08:53:22.810Z,25.42
2022-08-17T08:54:26.854Z,25.50
2022-08-17T08:55:22.773Z,25.44
2022-08-17T08:56:22.752Z,25.53
2022-08-17T08:57:28.998Z,25.57
2022-08-17T08:58:31.957Z,25.65
2022-08-17T08:59:22.697Z,25.61
2022-08-17T09:00:22.679Z,25.54
2022-08-17T09:01:22.708Z,25.52
2022-08-17T09:02:22.650Z,25.56
2022-08-17T09:03:32.391Z,25.64
2022-08-17T09:04:25.533Z,25.75
2022-08-17T09:05:22.584Z,25.80
2022-08-17T09:06:32.140Z,25.80
2022-08-17T09:07:22.546Z,25.86
2022-08-17T09:08:22.526Z,25.98
2022-08-17T09:09:22.510Z,26.02
2022-08-17T09:10:22.491Z,26.04
2022-08-17T09:11:22.472Z,26.18
2022-08-17T09:12:22.452Z,26.18
2022-08-17T09:13:22.437Z,26.17
2022-08-17T09:14:28.747Z,26.31
2022-08-17T09:15:22.397Z,26.22
2022-08-17T09:16:22.377Z,26.09
2022-08-17T09:17:22.359Z,26.15
2022-08-17T09:19:01.475Z,26.17
2022-08-17T09:19:22.322Z,26.20
2022-08-17T09:20:28.095Z,26.35
2022-08-17T09:21:22.285Z,26.29
2022-08-17T09:22:22.264Z,26.37
2022-08-17T09:23:22.267Z,26.36
2022-08-17T09:24:22.228Z,26.58
2022-08-17T09:25:22.212Z,26.59
2022-08-17T09:26:22.198Z,26.58
2022-08-17T09:27:22.175Z,26.49
2022-08-17T09:28:22.155Z,26.42
2022-08-17T09:29:22.139Z,26.35
2022-08-17T09:30:23.805Z,26.39
2022-08-17T09:31:22.116Z,26.42
2022-08-17T09:32:22.082Z,26.52
2022-08-17T09:33:22.065Z,26.47
2022-08-17T09:34:22.045Z,26.61
2022-08-17T09:35:22.028Z,26.65
2022-08-17T09:36:22.009Z,26.58
2022-08-17T09:37:21.993Z,26.69
2022-08-17T09:38:21.972Z,26.65
2022-08-17T09:39:21.955Z,26.76
2022-08-17T09:40:22.070Z,26.91
2022-08-17T09:41:21.916Z,26.89
2022-08-17T09:42:21.897Z,26.84
2022-08-17T09:43:21.881Z,27.05
2022-08-17T09:44:23.263Z,27.05
2022-08-17T09:45:21.844Z,26.92
2022-08-17T09:46:21.826Z,27.04
2022-08-17T09:47:21.808Z,26.99
2022-08-17T09:48:21.788Z,27.14
2022-08-17T09:49:25.113Z,27.20
2022-08-17T09:51:03.940Z,27.21
2022-08-17T09:51:21.735Z,27.17
2022-08-17T09:52:21.715Z,27.14
2022-08-17T09:53:21.700Z,27.19
2022-08-17T09:54:38.516Z,27.17
2022-08-17T09:55:21.668Z,27.28
2022-08-17T09:56:21.646Z,27.29
2022-08-17T09:57:30.668Z,27.38
2022-08-17T09:58:21.610Z,27.42
2022-08-17T09:59:21.594Z,27.39
2022-08-17T10:00:21.573Z,27.51
2022-08-17T10:01:21.628Z,27.35
2022-08-17T10:02:21.538Z,27.41
2022-08-17T10:03:21.521Z,27.43
2022-08-17T10:04:23.769Z,27.42
2022-08-17T10:05:21.485Z,27.42
2022-08-17T10:06:22.321Z,27.43
2022-08-17T10:07:21.451Z,27.36
2022-08-17T10:08:21.823Z,27.31
2022-08-17T10:09:21.415Z,27.42
2022-08-17T10:10:21.397Z,27.46
2022-08-17T10:11:21.380Z,27.36
2022-08-17T10:12:21.360Z,27.29
2022-08-17T10:13:21.347Z,27.35
2022-08-17T10:14:37.395Z,27.42
2022-08-17T10:15:21.308Z,27.20
2022-08-17T10:16:21.289Z,27.26
2022-08-17T10:17:21.272Z,27.29
2022-08-17T10:18:21.254Z,27.39
2022-08-17T10:19:21.237Z,27.47
2022-08-17T10:20:21.219Z,27.51
2022-08-17T10:21:21.202Z,27.42
2022-08-17T10:22:34.609Z,27.54
2022-08-17T10:23:21.170Z,27.67
2022-08-17T10:24:21.151Z,27.69
2022-08-17T10:25:24.699Z,27.82
2022-08-17T10:26:21.117Z,27.88
2022-08-17T10:27:21.098Z,27.89
2022-08-17T10:28:24.691Z,27.94
2022-08-17T10:29:21.062Z,27.86
2022-08-17T10:30:21.045Z,27.95
2022-08-17T10:31:36.536Z,28.01
2022-08-17T10:32:21.011Z,27.80
2022-08-17T10:33:20.993Z,27.73
2022-08-17T10:34:20.977Z,27.74
2022-08-17T10:35:20.957Z,27.91
2022-08-17T10:36:20.941Z,27.96
2022-08-17T10:37:20.927Z,27.91
2022-08-17T10:38:24.330Z,27.86
2022-08-17T10:39:20.889Z,27.73
2022-08-17T10:40:20.917Z,27.71
2022-08-17T10:41:20.853Z,27.80
2022-08-17T10:42:30.249Z,27.84
2022-08-17T10:43:20.819Z,27.80
2022-08-17T10:44:39.371Z,27.95
2022-08-17T10:45:20.786Z,27.80
2022-08-17T10:46:30.695Z,27.95
2022-08-17T10:47:20.753Z,28.07
2022-08-17T10:48:20.736Z,28.19
2022-08-17T10:49:20.716Z,28.14
2022-08-17T10:50:20.701Z,28.06
2022-08-17T10:51:20.682Z,27.84
2022-08-17T10:52:20.742Z,28.11
2022-08-17T10:53:20.648Z,28.16
2022-08-17T10:54:20.632Z,28.11
2022-08-17T10:55:20.623Z,28.17
2022-08-17T10:56:20.598Z,28.43
2022-08-17T10:57:20.583Z,28.58
2022-08-17T10:58:20.565Z,28.48
2022-08-17T10:59:20.546Z,28.63
2022-08-17T11:00:25.547Z,28.75
2022-08-17T11:01:20.600Z,28.77
2022-08-17T11:02:20.499Z,28.87
2022-08-17T11:03:20.477Z,29.01
2022-08-17T11:04:20.462Z,29.08
2022-08-17T11:05:20.446Z,29.18
2022-08-17T11:06:20.429Z,29.11
2022-08-17T11:07:20.463Z,29.11
2022-08-17T11:08:20.420Z,29.10
2022-08-17T11:09:20.409Z,29.26
2022-08-17T11:10:20.364Z,29.19
2022-08-17T11:11:20.408Z,29.07
2022-08-17T11:12:20.332Z,28.95
2022-08-17T11:13:20.314Z,28.90
2022-08-17T11:14:20.301Z,28.84
2022-08-17T11:15:20.283Z,28.73
2022-08-17T11:16:20.267Z,28.68
2022-08-17T11:17:20.252Z,28.68
2022-08-17T11:18:20.237Z,28.75
2022-08-17T11:19:20.222Z,28.62
2022-08-17T11:20:20.205Z,28.82
2022-08-17T11:21:20.189Z,29.04
2022-08-17T11:22:20.176Z,29.26
2022-08-17T11:23:20.157Z,29.34
2022-08-17T11:24:20.141Z,29.29
2022-08-17T11:25:20.122Z,29.29
2022-08-17T11:26:20.109Z,29.28
2022-08-17T11:27:20.091Z,29.19
2022-08-17T11:28:20.076Z,29.33
2022-08-17T11:29:20.059Z,29.45
2022-08-17T11:30:20.046Z,29.52
2022-08-17T11:31:20.048Z,29.50
2022-08-17T11:32:20.014Z,29.56
2022-08-17T11:33:19.998Z,29.79
2022-08-17T11:34:19.983Z,30.00
2022-08-17T11:35:19.967Z,29.93
2022-08-17T11:36:19.953Z,30.02
2022-08-17T11:37:19.936Z,29.97
2022-08-17T11:38:19.924Z,29.99
2022-08-17T11:39:19.907Z,30.05
2022-08-17T11:40:20.000Z,30.09
2022-08-17T11:41:19.875Z,30.16
2022-08-17T11:42:19.863Z,30.37
2022-08-17T11:43:19.844Z,30.15
2022-08-17T11:44:19.831Z,29.89
2022-08-17T11:45:32.626Z,29.81
2022-08-17T11:46:19.800Z,29.65
2022-08-17T11:47:19.783Z,29.40
2022-08-17T11:48:28.580Z,29.43
2022-08-17T11:49:19.752Z,29.37
2022-08-17T11:50:21.656Z,29.37
2022-08-17T11:51:19.722Z,29.23
2022-08-17T11:52:19.707Z,29.38
2022-08-17T11:53:19.692Z,29.74
2022-08-17T11:54:32.921Z,29.75
2022-08-17T11:55:34.993Z,29.66
2022-08-17T11:56:19.647Z,29.86
2022-08-17T11:57:19.631Z,29.90
2022-08-17T11:58:19.616Z,29.97
2022-08-17T11:59:19.601Z,30.14
2022-08-17T12:00:19.586Z,30.08
2022-08-17T12:01:19.570Z,30.05
2022-08-17T12:02:19.557Z,29.94
2022-08-17T12:03:19.581Z,30.03
2022-08-17T12:04:19.550Z,30.19
2022-08-17T12:05:19.513Z,30.21
2022-08-17T12:06:19.500Z,30.14
2022-08-17T12:07:19.484Z,30.05
2022-08-17T12:08:19.469Z,29.93
2022-08-17T12:09:19.452Z,29.94
2022-08-17T12:10:19.439Z,29.89
2022-08-17T12:11:58.835Z,29.87
2022-08-17T12:12:19.410Z,30.00
2022-08-17T12:13:19.398Z,30.00
2022-08-17T12:14:24.363Z,30.07
2022-08-17T12:15:19.363Z,30.11
2022-08-17T12:16:19.349Z,30.19
2022-08-17T12:17:39.279Z,30.12
2022-08-17T12:18:19.322Z,30.05
2022-08-17T12:19:19.305Z,30.11
2022-08-17T12:20:19.290Z,30.14
2022-08-17T12:21:19.275Z,30.15
2022-08-17T12:22:19.262Z,30.23
2022-08-17T12:23:19.244Z,30.24
2022-08-17T12:24:19.230Z,30.37
2022-08-17T12:25:19.215Z,30.56
2022-08-17T12:26:19.201Z,30.62
2022-08-17T12:27:19.187Z,30.74
2022-08-17T12:28:20.160Z,30.94
2022-08-17T12:29:35.455Z,31.09
2022-08-17T12:30:19.143Z,31.06
2022-08-17T12:31:19.128Z,31.02
2022-08-17T12:32:19.116Z,30.98
2022-08-17T12:33:25.483Z,30.99
2022-08-17T12:34:19.085Z,31.08
2022-08-17T12:35:19.070Z,31.11
2022-08-17T12:36:19.056Z,30.72
2022-08-17T12:37:19.043Z,30.65
2022-08-17T12:38:32.545Z,30.72
2022-08-17T12:39:21.443Z,30.68
2022-08-17T12:40:19.002Z,30.56
2022-08-17T12:41:18.987Z,30.67
2022-08-17T12:42:18.975Z,30.57
2022-08-17T12:43:18.962Z,30.61
2022-08-17T12:44:18.946Z,30.69
2022-08-17T12:45:18.930Z,30.75
2022-08-17T12:46:18.917Z,30.37
2022-08-17T12:47:22.445Z,30.29
2022-08-17T12:48:18.888Z,30.14
2022-08-17T12:49:18.875Z,30.11
2022-08-17T12:50:29.508Z,30.00
2022-08-17T12:51:18.848Z,30.24
2022-08-17T12:52:18.833Z,30.18